sensor_id;sensor_type;location;lat;lon;timestamp;temperature;humidity
26803;DHT22;14378;51.796;5.808;2022-11-20T00:03:17;0.70;99.90
26803;DHT22;14378;51.796;5.808;2022-11-20T00:05:19;0.70;99.90
26803;DHT22;14378;51.796;5.808;2022-11-20T00:07:21;0.80;99.90
26803;DHT22;14378;51.796;5.808;2022-11-20T00:09:22;0.80;99.90
26803;DHT22;14378;51.796;5.808;2022-11-20T00:11:25;0.70;99.90
26803;DHT22;14378;51.796;5.808;2022-11-20T00:13:27;0.70;99.90
26803;DHT22;14378;51.796;5.808;2022-11-20T00:15:27;0.70;99.90
26803;DHT22;14378;51.796;5.808;2022-11-20T00:17:33;0.70;99.90
26803;DHT22;14378;51.796;5.808;2022-11-20T00:19:33;0.70;99.90
26803;DHT22;14378;51.796;5.808;2022-11-20T00:21:34;0.70;99.90
26803;DHT22;14378;51.796;5.808;2022-11-20T00:23:35;0.70;99.90
26803;DHT22;14378;51.796;5.808;2022-11-20T00:25:36;0.70;99.90
26803;DHT22;14378;51.796;5.808;2022-11-20T00:27:37;0.60;99.90
26803;DHT22;14378;51.796;5.808;2022-11-20T00:29:38;0.60;99.90
26803;DHT22;14378;51.796;5.808;2022-11-20T00:31:39;0.60;99.90
26803;DHT22;14378;51.796;5.808;2022-11-20T00:33:42;0.60;99.90
26803;DHT22;14378;51.796;5.808;2022-11-20T00:35:46;0.60;99.90
26803;DHT22;14378;51.796;5.808;2022-11-20T00:37:47;0.60;99.90
26803;DHT22;14378;51.796;5.808;2022-11-20T00:39:48;0.60;99.90
26803;DHT22;14378;51.796;5.808;2022-11-20T00:41:51;0.50;99.90
26803;DHT22;14378;51.796;5.808;2022-11-20T00:43:53;0.50;99.90
26803;DHT22;14378;51.796;5.808;2022-11-20T00:46:05;0.50;99.90
26803;DHT22;14378;51.796;5.808;2022-11-20T00:48:07;0.50;99.90
26803;DHT22;14378;51.796;5.808;2022-11-20T00:50:08;0.50;99.90
26803;DHT22;14378;51.796;5.808;2022-11-20T00:52:09;0.50;99.90
26803;DHT22;14378;51.796;5.808;2022-11-20T00:54:11;0.50;99.90
26803;DHT22;14378;51.796;5.808;2022-11-20T00:56:17;0.50;99.90
26803;DHT22;14378;51.796;5.808;2022-11-20T00:58:18;0.50;99.90
26803;DHT22;14378;51.796;5.808;2022-11-20T01:03:11;0.40;99.90
26803;DHT22;14378;51.796;5.808;2022-11-20T01:05:12;0.40;99.90
26803;DHT22;14378;51.796;5.808;2022-11-20T01:07:15;0.40;99.90
26803;DHT22;14378;51.796;5.808;2022-11-20T01:09:16;0.40;99.90
26803;DHT22;14378;51.796;5.808;2022-11-20T01:11:21;0.40;99.90
26803;DHT22;14378;51.796;5.808;2022-11-20T01:13:22;0.30;99.90
26803;DHT22;14378;51.796;5.808;2022-11-20T01:15:39;0.30;99.90
26803;DHT22;14378;51.796;5.808;2022-11-20T01:17:39;0.30;99.90
26803;DHT22;14378;51.796;5.808;2022-11-20T01:19:40;0.30;99.90
26803;DHT22;14378;51.796;5.808;2022-11-20T01:21:42;0.30;99.90
26803;DHT22;14378;51.796;5.808;2022-11-20T01:23:44;0.30;99.90
26803;DHT22;14378;51.796;5.808;2022-11-20T01:25:45;0.30;99.90
26803;DHT22;14378;51.796;5.808;2022-11-20T01:27:46;0.30;99.90
26803;DHT22;14378;51.796;5.808;2022-11-20T01:29:48;0.20;99.90
26803;DHT22;14378;51.796;5.808;2022-11-20T01:31:49;0.20;99.90
26803;DHT22;14378;51.796;5.808;2022-11-20T01:33:55;0.20;99.90
26803;DHT22;14378;51.796;5.808;2022-11-20T01:36:04;0.20;99.90
26803;DHT22;14378;51.796;5.808;2022-11-20T01:38:05;0.20;99.90
26803;DHT22;14378;51.796;5.808;2022-11-20T01:40:06;0.20;99.90
26803;DHT22;14378;51.796;5.808;2022-11-20T01:42:07;0.20;99.90
26803;DHT22;14378;51.796;5.808;2022-11-20T01:44:58;0.20;99.90
26803;DHT22;14378;51.796;5.808;2022-11-20T01:47:03;0.20;99.90
26803;DHT22;14378;51.796;5.808;2022-11-20T01:49:20;0.20;99.90
26803;DHT22;14378;51.796;5.808;2022-11-20T01:53:31;0.20;99.90
26803;DHT22;14378;51.796;5.808;2022-11-20T01:55:36;0.20;99.90
26803;DHT22;14378;51.796;5.808;2022-11-20T01:57:38;0.20;99.90
26803;DHT22;14378;51.796;5.808;2022-11-20T01:59:44;0.20;99.90
26803;DHT22;14378;51.796;5.808;2022-11-20T02:01:52;0.20;99.90
26803;DHT22;14378;51.796;5.808;2022-11-20T02:03:56;0.20;99.90
26803;DHT22;14378;51.796;5.808;2022-11-20T02:06:10;0.10;99.90
26803;DHT22;14378;51.796;5.808;2022-11-20T02:08:13;0.10;99.90
26803;DHT22;14378;51.796;5.808;2022-11-20T02:10:16;0.10;99.90
26803;DHT22;14378;51.796;5.808;2022-11-20T02:12:18;0.10;99.90
26803;DHT22;14378;51.796;5.808;2022-11-20T02:14:57;0.20;99.90
26803;DHT22;14378;51.796;5.808;2022-11-20T02:16:58;0.10;99.90
26803;DHT22;14378;51.796;5.808;2022-11-20T02:19:01;0.10;99.90
26803;DHT22;14378;51.796;5.808;2022-11-20T02:21:13;0.10;99.90
26803;DHT22;14378;51.796;5.808;2022-11-20T02:26:03;0.10;99.90
26803;DHT22;14378;51.796;5.808;2022-11-20T02:28:05;0.10;99.90
26803;DHT22;14378;51.796;5.808;2022-11-20T02:30:10;0.10;99.90
26803;DHT22;14378;51.796;5.808;2022-11-20T02:32:19;0.10;99.90
26803;DHT22;14378;51.796;5.808;2022-11-20T02:34:21;0.10;99.90
26803;DHT22;14378;51.796;5.808;2022-11-20T02:36:24;0.10;99.90
26803;DHT22;14378;51.796;5.808;2022-11-20T02:38:26;0.10;99.90
26803;DHT22;14378;51.796;5.808;2022-11-20T02:40:28;0.10;99.90
26803;DHT22;14378;51.796;5.808;2022-11-20T02:42:29;0.00;99.90
26803;DHT22;14378;51.796;5.808;2022-11-20T02:44:30;0.00;99.90
26803;DHT22;14378;51.796;5.808;2022-11-20T02:46:35;0.00;99.90
26803;DHT22;14378;51.796;5.808;2022-11-20T02:48:37;0.00;99.90
26803;DHT22;14378;51.796;5.808;2022-11-20T02:50:40;0.00;99.90
26803;DHT22;14378;51.796;5.808;2022-11-20T02:52:41;0.00;99.90
26803;DHT22;14378;51.796;5.808;2022-11-20T02:54:42;0.00;99.90
26803;DHT22;14378;51.796;5.808;2022-11-20T02:56:43;0.00;99.90
26803;DHT22;14378;51.796;5.808;2022-11-20T02:58:44;0.00;99.90
26803;DHT22;14378;51.796;5.808;2022-11-20T03:00:45;0.00;99.90
26803;DHT22;14378;51.796;5.808;2022-11-20T03:02:46;-0.10;99.90
26803;DHT22;14378;51.796;5.808;2022-11-20T03:04:47;-0.10;99.90
26803;DHT22;14378;51.796;5.808;2022-11-20T03:06:48;-0.10;99.90
26803;DHT22;14378;51.796;5.808;2022-11-20T03:08:50;-0.10;99.90
26803;DHT22;14378;51.796;5.808;2022-11-20T03:10:51;-0.20;99.90
26803;DHT22;14378;51.796;5.808;2022-11-20T03:12:55;-0.20;99.90
26803;DHT22;14378;51.796;5.808;2022-11-20T03:14:56;-0.20;99.90
26803;DHT22;14378;51.796;5.808;2022-11-20T03:16:57;-0.20;99.90
26803;DHT22;14378;51.796;5.808;2022-11-20T03:18:58;-0.20;99.90
26803;DHT22;14378;51.796;5.808;2022-11-20T03:20:59;-0.20;99.90
26803;DHT22;14378;51.796;5.808;2022-11-20T03:23:00;-0.30;99.90
26803;DHT22;14378;51.796;5.808;2022-11-20T03:25:04;-0.30;99.90
26803;DHT22;14378;51.796;5.808;2022-11-20T03:27:05;-0.30;99.90
26803;DHT22;14378;51.796;5.808;2022-11-20T03:29:06;-0.40;99.90
26803;DHT22;14378;51.796;5.808;2022-11-20T03:31:11;-0.40;99.90
26803;DHT22;14378;51.796;5.808;2022-11-20T03:33:13;-0.40;99.90
26803;DHT22;14378;51.796;5.808;2022-11-20T03:35:15;-0.50;99.90
26803;DHT22;14378;51.796;5.808;2022-11-20T03:37:15;-0.40;99.90
26803;DHT22;14378;51.796;5.808;2022-11-20T03:39:16;-0.50;99.90
26803;DHT22;14378;51.796;5.808;2022-11-20T03:41:20;-0.40;99.90
26803;DHT22;14378;51.796;5.808;2022-11-20T03:43:21;-0.50;99.90
26803;DHT22;14378;51.796;5.808;2022-11-20T03:45:22;-0.50;99.90
26803;DHT22;14378;51.796;5.808;2022-11-20T03:47:23;-0.50;99.90
26803;DHT22;14378;51.796;5.808;2022-11-20T03:49:23;-0.40;99.90
26803;DHT22;14378;51.796;5.808;2022-11-20T03:51:26;-0.40;99.90
26803;DHT22;14378;51.796;5.808;2022-11-20T03:53:27;-0.40;99.90
26803;DHT22;14378;51.796;5.808;2022-11-20T03:55:28;-0.50;99.90
26803;DHT22;14378;51.796;5.808;2022-11-20T03:57:30;-0.50;99.90
26803;DHT22;14378;51.796;5.808;2022-11-20T03:59:31;-0.60;99.90
26803;DHT22;14378;51.796;5.808;2022-11-20T04:01:35;-0.50;99.90
26803;DHT22;14378;51.796;5.808;2022-11-20T04:03:37;-0.50;99.90
26803;DHT22;14378;51.796;5.808;2022-11-20T04:05:39;-0.50;99.90
26803;DHT22;14378;51.796;5.808;2022-11-20T04:07:41;-0.60;99.90
26803;DHT22;14378;51.796;5.808;2022-11-20T04:09:42;-0.60;99.90
26803;DHT22;14378;51.796;5.808;2022-11-20T04:11:43;-0.60;99.90
26803;DHT22;14378;51.796;5.808;2022-11-20T04:13:53;-0.60;99.90
26803;DHT22;14378;51.796;5.808;2022-11-20T04:15:57;-0.60;99.90
26803;DHT22;14378;51.796;5.808;2022-11-20T04:17:58;-0.60;99.90
26803;DHT22;14378;51.796;5.808;2022-11-20T04:20:01;-0.60;99.90
26803;DHT22;14378;51.796;5.808;2022-11-20T04:22:05;-0.70;99.90
26803;DHT22;14378;51.796;5.808;2022-11-20T04:24:12;-0.70;99.90
26803;DHT22;14378;51.796;5.808;2022-11-20T04:26:13;-0.70;99.90
26803;DHT22;14378;51.796;5.808;2022-11-20T04:28:14;-0.70;99.90
26803;DHT22;14378;51.796;5.808;2022-11-20T04:30:14;-0.70;99.90
26803;DHT22;14378;51.796;5.808;2022-11-20T04:32:16;-0.70;99.90
26803;DHT22;14378;51.796;5.808;2022-11-20T04:34:18;-0.70;99.90
26803;DHT22;14378;51.796;5.808;2022-11-20T04:36:29;-0.70;99.90
26803;DHT22;14378;51.796;5.808;2022-11-20T04:38:32;-0.80;99.90
26803;DHT22;14378;51.796;5.808;2022-11-20T04:40:33;-0.70;99.90
26803;DHT22;14378;51.796;5.808;2022-11-20T04:42:34;-0.70;99.90
26803;DHT22;14378;51.796;5.808;2022-11-20T04:44:35;-0.80;99.90
26803;DHT22;14378;51.796;5.808;2022-11-20T04:46:39;-0.80;99.90
26803;DHT22;14378;51.796;5.808;2022-11-20T04:48:42;-0.80;99.90
26803;DHT22;14378;51.796;5.808;2022-11-20T04:50:44;-0.80;99.90
26803;DHT22;14378;51.796;5.808;2022-11-20T04:52:46;-0.80;99.90
26803;DHT22;14378;51.796;5.808;2022-11-20T04:54:47;-0.80;99.90
26803;DHT22;14378;51.796;5.808;2022-11-20T04:56:48;-0.80;99.90
26803;DHT22;14378;51.796;5.808;2022-11-20T04:58:50;-0.80;99.90
26803;DHT22;14378;51.796;5.808;2022-11-20T05:00:51;-0.80;99.90
26803;DHT22;14378;51.796;5.808;2022-11-20T05:02:52;-0.80;99.90
26803;DHT22;14378;51.796;5.808;2022-11-20T05:04:53;-0.80;99.90
26803;DHT22;14378;51.796;5.808;2022-11-20T05:06:54;-0.80;99.90
26803;DHT22;14378;51.796;5.808;2022-11-20T05:08:55;-0.90;99.90
26803;DHT22;14378;51.796;5.808;2022-11-20T05:11:23;-0.90;99.90
26803;DHT22;14378;51.796;5.808;2022-11-20T05:13:24;-0.90;99.90
26803;DHT22;14378;51.796;5.808;2022-11-20T05:15:25;-0.90;99.90
26803;DHT22;14378;51.796;5.808;2022-11-20T05:17:26;-0.90;99.90
26803;DHT22;14378;51.796;5.808;2022-11-20T05:19:27;-1.00;99.90
26803;DHT22;14378;51.796;5.808;2022-11-20T05:21:30;-1.00;99.90
26803;DHT22;14378;51.796;5.808;2022-11-20T05:23:33;-1.00;99.90
26803;DHT22;14378;51.796;5.808;2022-11-20T05:25:35;-1.00;99.90
26803;DHT22;14378;51.796;5.808;2022-11-20T05:27:37;-1.00;99.90
26803;DHT22;14378;51.796;5.808;2022-11-20T05:29:37;-1.00;99.90
26803;DHT22;14378;51.796;5.808;2022-11-20T05:31:40;-1.00;99.90
26803;DHT22;14378;51.796;5.808;2022-11-20T05:33:42;-1.00;99.90
26803;DHT22;14378;51.796;5.808;2022-11-20T05:35:44;-1.00;99.90
26803;DHT22;14378;51.796;5.808;2022-11-20T05:37:45;-1.00;99.90
26803;DHT22;14378;51.796;5.808;2022-11-20T05:39:46;-1.00;99.90
26803;DHT22;14378;51.796;5.808;2022-11-20T05:41:48;-1.10;99.90
26803;DHT22;14378;51.796;5.808;2022-11-20T05:44:13;-1.10;99.90
26803;DHT22;14378;51.796;5.808;2022-11-20T05:46:16;-1.10;99.90
26803;DHT22;14378;51.796;5.808;2022-11-20T05:48:17;-1.10;99.90
26803;DHT22;14378;51.796;5.808;2022-11-20T05:50:18;-1.10;99.90
26803;DHT22;14378;51.796;5.808;2022-11-20T05:52:19;-1.10;99.90
26803;DHT22;14378;51.796;5.808;2022-11-20T05:54:26;-1.10;99.90
26803;DHT22;14378;51.796;5.808;2022-11-20T05:56:27;-1.10;99.90
26803;DHT22;14378;51.796;5.808;2022-11-20T05:58:30;-1.10;99.90
26803;DHT22;14378;51.796;5.808;2022-11-20T06:00:34;-1.10;99.90
26803;DHT22;14378;51.796;5.808;2022-11-20T06:02:36;-1.10;99.90
26803;DHT22;14378;51.796;5.808;2022-11-20T06:04:37;-1.10;99.90
26803;DHT22;14378;51.796;5.808;2022-11-20T06:06:38;-1.20;99.90
26803;DHT22;14378;51.796;5.808;2022-11-20T06:08:39;-1.20;99.90
26803;DHT22;14378;51.796;5.808;2022-11-20T06:10:40;-1.20;99.90
26803;DHT22;14378;51.796;5.808;2022-11-20T06:12:43;-1.20;99.90
26803;DHT22;14378;51.796;5.808;2022-11-20T06:14:44;-1.20;99.90
26803;DHT22;14378;51.796;5.808;2022-11-20T06:16:44;-1.20;99.90
26803;DHT22;14378;51.796;5.808;2022-11-20T06:18:49;-1.20;99.90
26803;DHT22;14378;51.796;5.808;2022-11-20T06:20:50;-1.20;99.90
26803;DHT22;14378;51.796;5.808;2022-11-20T06:23:00;-1.20;99.90
26803;DHT22;14378;51.796;5.808;2022-11-20T06:25:02;-1.20;99.90
26803;DHT22;14378;51.796;5.808;2022-11-20T06:27:03;-1.20;99.90
26803;DHT22;14378;51.796;5.808;2022-11-20T06:29:04;-1.20;99.90
26803;DHT22;14378;51.796;5.808;2022-11-20T06:31:07;-1.20;99.90
26803;DHT22;14378;51.796;5.808;2022-11-20T06:33:08;-1.20;99.90
26803;DHT22;14378;51.796;5.808;2022-11-20T06:35:09;-1.20;99.90
26803;DHT22;14378;51.796;5.808;2022-11-20T06:37:10;-1.20;99.90
26803;DHT22;14378;51.796;5.808;2022-11-20T06:39:11;-1.20;99.90
26803;DHT22;14378;51.796;5.808;2022-11-20T06:41:14;-1.20;99.90
26803;DHT22;14378;51.796;5.808;2022-11-20T06:43:15;-1.20;99.90
26803;DHT22;14378;51.796;5.808;2022-11-20T06:45:16;-1.20;99.90
26803;DHT22;14378;51.796;5.808;2022-11-20T06:47:17;-1.20;99.90
26803;DHT22;14378;51.796;5.808;2022-11-20T06:49:18;-1.20;99.90
26803;DHT22;14378;51.796;5.808;2022-11-20T06:51:19;-1.10;99.90
26803;DHT22;14378;51.796;5.808;2022-11-20T06:53:21;-1.20;99.90
26803;DHT22;14378;51.796;5.808;2022-11-20T06:55:22;-1.20;99.90
26803;DHT22;14378;51.796;5.808;2022-11-20T06:57:23;-1.20;99.90
26803;DHT22;14378;51.796;5.808;2022-11-20T06:59:25;-1.20;99.90
26803;DHT22;14378;51.796;5.808;2022-11-20T07:01:28;-1.20;99.90
26803;DHT22;14378;51.796;5.808;2022-11-20T07:03:29;-1.20;99.90
26803;DHT22;14378;51.796;5.808;2022-11-20T07:05:29;-1.20;99.90
26803;DHT22;14378;51.796;5.808;2022-11-20T07:07:30;-1.20;99.90
26803;DHT22;14378;51.796;5.808;2022-11-20T07:09:32;-1.20;99.90
26803;DHT22;14378;51.796;5.808;2022-11-20T07:11:34;-1.20;99.90
26803;DHT22;14378;51.796;5.808;2022-11-20T07:13:35;-1.20;99.90
26803;DHT22;14378;51.796;5.808;2022-11-20T07:15:36;-1.20;99.90
26803;DHT22;14378;51.796;5.808;2022-11-20T07:17:36;-1.20;99.90
26803;DHT22;14378;51.796;5.808;2022-11-20T07:19:37;-1.20;99.90
26803;DHT22;14378;51.796;5.808;2022-11-20T07:21:38;-1.20;99.90
26803;DHT22;14378;51.796;5.808;2022-11-20T07:23:39;-1.10;99.90
26803;DHT22;14378;51.796;5.808;2022-11-20T07:25:40;-1.10;99.90
26803;DHT22;14378;51.796;5.808;2022-11-20T07:27:41;-1.10;99.90
26803;DHT22;14378;51.796;5.808;2022-11-20T07:29:42;-1.10;99.90
26803;DHT22;14378;51.796;5.808;2022-11-20T07:31:43;-1.10;99.90
26803;DHT22;14378;51.796;5.808;2022-11-20T07:33:44;-1.10;99.90
26803;DHT22;14378;51.796;5.808;2022-11-20T07:35:45;-1.10;99.90
26803;DHT22;14378;51.796;5.808;2022-11-20T07:37:49;-1.10;99.90
26803;DHT22;14378;51.796;5.808;2022-11-20T07:39:50;-1.10;99.90
26803;DHT22;14378;51.796;5.808;2022-11-20T07:41:51;-1.10;99.90
26803;DHT22;14378;51.796;5.808;2022-11-20T07:43:53;-1.10;99.90
26803;DHT22;14378;51.796;5.808;2022-11-20T07:45:56;-1.00;99.90
26803;DHT22;14378;51.796;5.808;2022-11-20T07:47:57;-1.00;99.90
26803;DHT22;14378;51.796;5.808;2022-11-20T07:49:58;-0.90;99.90
26803;DHT22;14378;51.796;5.808;2022-11-20T07:51:59;-0.90;99.90
26803;DHT22;14378;51.796;5.808;2022-11-20T07:54:03;-0.90;99.90
26803;DHT22;14378;51.796;5.808;2022-11-20T07:56:04;-0.90;99.90
26803;DHT22;14378;51.796;5.808;2022-11-20T07:58:06;-0.80;99.90
26803;DHT22;14378;51.796;5.808;2022-11-20T08:00:08;-0.80;99.90
26803;DHT22;14378;51.796;5.808;2022-11-20T08:02:13;-0.80;99.90
26803;DHT22;14378;51.796;5.808;2022-11-20T08:04:14;-0.70;99.90
26803;DHT22;14378;51.796;5.808;2022-11-20T08:06:16;-0.70;99.90
26803;DHT22;14378;51.796;5.808;2022-11-20T08:08:19;-0.70;99.90
26803;DHT22;14378;51.796;5.808;2022-11-20T08:10:20;-0.60;99.90
26803;DHT22;14378;51.796;5.808;2022-11-20T08:12:22;-0.60;99.90
26803;DHT22;14378;51.796;5.808;2022-11-20T08:14:41;-0.50;99.90
26803;DHT22;14378;51.796;5.808;2022-11-20T08:16:48;-0.50;99.90
26803;DHT22;14378;51.796;5.808;2022-11-20T08:18:52;-0.40;99.90
26803;DHT22;14378;51.796;5.808;2022-11-20T08:20:53;-0.30;99.90
26803;DHT22;14378;51.796;5.808;2022-11-20T08:23:01;-0.30;99.90
26803;DHT22;14378;51.796;5.808;2022-11-20T08:25:04;-0.30;99.90
26803;DHT22;14378;51.796;5.808;2022-11-20T08:27:05;-0.20;99.90
26803;DHT22;14378;51.796;5.808;2022-11-20T08:29:07;-0.10;99.90
26803;DHT22;14378;51.796;5.808;2022-11-20T08:31:08;-0.10;99.90
26803;DHT22;14378;51.796;5.808;2022-11-20T08:33:10;0.00;99.90
26803;DHT22;14378;51.796;5.808;2022-11-20T08:35:11;0.00;99.90
26803;DHT22;14378;51.796;5.808;2022-11-20T08:37:13;0.10;99.90
26803;DHT22;14378;51.796;5.808;2022-11-20T08:39:14;0.20;99.90
26803;DHT22;14378;51.796;5.808;2022-11-20T08:41:15;0.30;99.90
26803;DHT22;14378;51.796;5.808;2022-11-20T08:43:26;0.30;99.90
26803;DHT22;14378;51.796;5.808;2022-11-20T08:45:27;0.40;99.90
26803;DHT22;14378;51.796;5.808;2022-11-20T08:47:28;0.40;99.90
26803;DHT22;14378;51.796;5.808;2022-11-20T08:49:29;0.50;99.90
26803;DHT22;14378;51.796;5.808;2022-11-20T08:51:30;0.60;99.90
26803;DHT22;14378;51.796;5.808;2022-11-20T08:53:34;0.60;99.90
26803;DHT22;14378;51.796;5.808;2022-11-20T08:55:36;0.70;99.90
26803;DHT22;14378;51.796;5.808;2022-11-20T08:57:37;0.80;99.90
26803;DHT22;14378;51.796;5.808;2022-11-20T08:59:39;0.80;99.90
26803;DHT22;14378;51.796;5.808;2022-11-20T09:01:40;0.90;99.90
26803;DHT22;14378;51.796;5.808;2022-11-20T09:03:41;1.00;99.90
26803;DHT22;14378;51.796;5.808;2022-11-20T09:05:42;1.10;99.90
26803;DHT22;14378;51.796;5.808;2022-11-20T09:07:43;1.20;99.90
26803;DHT22;14378;51.796;5.808;2022-11-20T09:09:44;1.20;99.90
26803;DHT22;14378;51.796;5.808;2022-11-20T09:11:45;1.30;99.90
26803;DHT22;14378;51.796;5.808;2022-11-20T09:13:46;1.30;99.90
26803;DHT22;14378;51.796;5.808;2022-11-20T09:15:47;1.40;99.90
26803;DHT22;14378;51.796;5.808;2022-11-20T09:17:58;1.40;99.90
26803;DHT22;14378;51.796;5.808;2022-11-20T09:20:00;1.50;99.90
26803;DHT22;14378;51.796;5.808;2022-11-20T09:22:03;1.60;99.90
26803;DHT22;14378;51.796;5.808;2022-11-20T09:24:04;1.60;99.90
26803;DHT22;14378;51.796;5.808;2022-11-20T09:26:08;1.60;99.90
26803;DHT22;14378;51.796;5.808;2022-11-20T09:28:11;1.70;99.90
26803;DHT22;14378;51.796;5.808;2022-11-20T09:30:16;1.70;99.90
26803;DHT22;14378;51.796;5.808;2022-11-20T09:32:18;1.80;99.90
26803;DHT22;14378;51.796;5.808;2022-11-20T09:34:18;1.80;99.90
26803;DHT22;14378;51.796;5.808;2022-11-20T09:36:19;1.90;99.90
26803;DHT22;14378;51.796;5.808;2022-11-20T09:38:20;1.90;99.90
26803;DHT22;14378;51.796;5.808;2022-11-20T09:40:27;2.00;99.90
26803;DHT22;14378;51.796;5.808;2022-11-20T09:42:45;2.00;99.90
26803;DHT22;14378;51.796;5.808;2022-11-20T09:47:13;2.20;99.90
26803;DHT22;14378;51.796;5.808;2022-11-20T09:54:21;2.30;99.90
26803;DHT22;14378;51.796;5.808;2022-11-20T09:56:24;2.40;99.90
26803;DHT22;14378;51.796;5.808;2022-11-20T09:58:41;2.50;99.90
26803;DHT22;14378;51.796;5.808;2022-11-20T10:00:44;2.50;99.90
26803;DHT22;14378;51.796;5.808;2022-11-20T10:05:19;2.70;99.90
26803;DHT22;14378;51.796;5.808;2022-11-20T10:09:38;2.80;99.90
26803;DHT22;14378;51.796;5.808;2022-11-20T10:11:48;2.80;99.90
26803;DHT22;14378;51.796;5.808;2022-11-20T10:21:13;3.10;99.90
26803;DHT22;14378;51.796;5.808;2022-11-20T10:23:28;3.20;99.90
26803;DHT22;14378;51.796;5.808;2022-11-20T10:25:43;3.20;99.90
26803;DHT22;14378;51.796;5.808;2022-11-20T10:30:01;3.30;99.90
26803;DHT22;14378;51.796;5.808;2022-11-20T10:32:10;3.30;99.90
26803;DHT22;14378;51.796;5.808;2022-11-20T10:34:20;3.40;99.90
26803;DHT22;14378;51.796;5.808;2022-11-20T10:36:32;3.40;99.90
26803;DHT22;14378;51.796;5.808;2022-11-20T10:38:40;3.50;99.90
26803;DHT22;14378;51.796;5.808;2022-11-20T10:40:44;3.50;99.90
26803;DHT22;14378;51.796;5.808;2022-11-20T10:42:48;3.60;99.90
26803;DHT22;14378;51.796;5.808;2022-11-20T10:44:55;3.70;99.90
26803;DHT22;14378;51.796;5.808;2022-11-20T10:47:05;3.70;99.90
26803;DHT22;14378;51.796;5.808;2022-11-20T10:49:34;3.80;99.90
26803;DHT22;14378;51.796;5.808;2022-11-20T10:51:49;3.80;99.90
26803;DHT22;14378;51.796;5.808;2022-11-20T10:54:13;3.90;99.90
26803;DHT22;14378;51.796;5.808;2022-11-20T11:00:34;4.00;99.90
26803;DHT22;14378;51.796;5.808;2022-11-20T11:02:47;4.10;99.90
26803;DHT22;14378;51.796;5.808;2022-11-20T11:04:52;4.10;99.90
26803;DHT22;14378;51.796;5.808;2022-11-20T11:06:58;4.20;99.90
26803;DHT22;14378;51.796;5.808;2022-11-20T11:09:13;4.20;99.90
26803;DHT22;14378;51.796;5.808;2022-11-20T11:11:28;4.20;99.90
26803;DHT22;14378;51.796;5.808;2022-11-20T11:13:30;4.20;99.90
26803;DHT22;14378;51.796;5.808;2022-11-20T11:15:39;4.30;99.90
26803;DHT22;14378;51.796;5.808;2022-11-20T11:17:46;4.30;99.90
26803;DHT22;14378;51.796;5.808;2022-11-20T11:20:03;4.30;99.90
26803;DHT22;14378;51.796;5.808;2022-11-20T11:22:16;4.30;99.90
26803;DHT22;14378;51.796;5.808;2022-11-20T11:26:23;4.30;99.90
26803;DHT22;14378;51.796;5.808;2022-11-20T11:28:26;4.30;99.90
26803;DHT22;14378;51.796;5.808;2022-11-20T11:30:29;4.30;99.90
26803;DHT22;14378;51.796;5.808;2022-11-20T11:32:34;4.40;99.90
26803;DHT22;14378;51.796;5.808;2022-11-20T11:34:35;4.40;99.90
26803;DHT22;14378;51.796;5.808;2022-11-20T11:36:36;4.40;99.90
26803;DHT22;14378;51.796;5.808;2022-11-20T11:38:41;4.40;99.90
26803;DHT22;14378;51.796;5.808;2022-11-20T11:40:43;4.40;99.90
26803;DHT22;14378;51.796;5.808;2022-11-20T11:42:58;4.50;99.90
26803;DHT22;14378;51.796;5.808;2022-11-20T11:45:00;4.50;99.90
26803;DHT22;14378;51.796;5.808;2022-11-20T11:47:33;4.60;99.90
26803;DHT22;14378;51.796;5.808;2022-11-20T11:49:36;4.60;99.90
26803;DHT22;14378;51.796;5.808;2022-11-20T11:54:38;4.70;99.90
26803;DHT22;14378;51.796;5.808;2022-11-20T11:56:44;4.70;99.90
26803;DHT22;14378;51.796;5.808;2022-11-20T11:58:47;4.80;99.90
26803;DHT22;14378;51.796;5.808;2022-11-20T12:01:00;4.80;99.90
26803;DHT22;14378;51.796;5.808;2022-11-20T12:03:27;4.80;99.90
26803;DHT22;14378;51.796;5.808;2022-11-20T12:05:38;4.80;99.90
26803;DHT22;14378;51.796;5.808;2022-11-20T12:08:25;4.90;99.90
26803;DHT22;14378;51.796;5.808;2022-11-20T12:12:42;4.90;99.90
26803;DHT22;14378;51.796;5.808;2022-11-20T12:14:47;4.90;99.90
26803;DHT22;14378;51.796;5.808;2022-11-20T12:16:51;5.00;99.90
26803;DHT22;14378;51.796;5.808;2022-11-20T12:18:53;5.00;99.90
26803;DHT22;14378;51.796;5.808;2022-11-20T12:25:33;5.00;99.90
26803;DHT22;14378;51.796;5.808;2022-11-20T12:30:03;5.00;99.90
26803;DHT22;14378;51.796;5.808;2022-11-20T12:46:47;4.90;99.90
26803;DHT22;14378;51.796;5.808;2022-11-20T12:49:29;4.90;99.90
26803;DHT22;14378;51.796;5.808;2022-11-20T12:56:24;4.90;99.90
26803;DHT22;14378;51.796;5.808;2022-11-20T13:03:28;4.70;99.90
26803;DHT22;14378;51.796;5.808;2022-11-20T13:08:35;4.70;99.90
26803;DHT22;14378;51.796;5.808;2022-11-20T13:10:43;4.70;99.90
26803;DHT22;14378;51.796;5.808;2022-11-20T13:12:54;4.60;99.90
26803;DHT22;14378;51.796;5.808;2022-11-20T13:17:36;4.70;99.90
26803;DHT22;14378;51.796;5.808;2022-11-20T13:19:41;4.70;99.90
26803;DHT22;14378;51.796;5.808;2022-11-20T13:21:44;4.70;99.90
26803;DHT22;14378;51.796;5.808;2022-11-20T13:23:49;4.70;99.90
26803;DHT22;14378;51.796;5.808;2022-11-20T13:25:50;4.70;99.90
26803;DHT22;14378;51.796;5.808;2022-11-20T13:27:55;4.70;99.90
26803;DHT22;14378;51.796;5.808;2022-11-20T13:30:13;4.70;99.90
26803;DHT22;14378;51.796;5.808;2022-11-20T13:32:17;4.80;99.90
26803;DHT22;14378;51.796;5.808;2022-11-20T13:34:26;4.80;99.90
26803;DHT22;14378;51.796;5.808;2022-11-20T13:36:28;4.80;99.90
26803;DHT22;14378;51.796;5.808;2022-11-20T13:39:03;4.80;99.90
26803;DHT22;14378;51.796;5.808;2022-11-20T13:41:07;4.80;99.90
26803;DHT22;14378;51.796;5.808;2022-11-20T13:43:39;4.80;99.90
26803;DHT22;14378;51.796;5.808;2022-11-20T13:45:41;4.90;99.90
26803;DHT22;14378;51.796;5.808;2022-11-20T13:47:48;4.90;99.90
26803;DHT22;14378;51.796;5.808;2022-11-20T13:49:51;4.90;99.90
26803;DHT22;14378;51.796;5.808;2022-11-20T13:57:30;4.80;99.90
26803;DHT22;14378;51.796;5.808;2022-11-20T14:01:46;4.80;99.90
26803;DHT22;14378;51.796;5.808;2022-11-20T14:03:50;4.80;99.90
26803;DHT22;14378;51.796;5.808;2022-11-20T14:05:56;4.80;99.90
26803;DHT22;14378;51.796;5.808;2022-11-20T14:08:03;4.80;99.90
26803;DHT22;14378;51.796;5.808;2022-11-20T14:10:18;4.80;99.90
26803;DHT22;14378;51.796;5.808;2022-11-20T14:12:23;4.80;99.90
26803;DHT22;14378;51.796;5.808;2022-11-20T14:14:29;4.80;99.90
26803;DHT22;14378;51.796;5.808;2022-11-20T14:16:33;4.80;99.90
26803;DHT22;14378;51.796;5.808;2022-11-20T14:18:35;4.80;99.90
26803;DHT22;14378;51.796;5.808;2022-11-20T14:20:38;4.70;99.90
26803;DHT22;14378;51.796;5.808;2022-11-20T14:22:39;4.70;99.90
26803;DHT22;14378;51.796;5.808;2022-11-20T14:27:16;4.80;99.90
26803;DHT22;14378;51.796;5.808;2022-11-20T14:29:26;4.80;99.90
26803;DHT22;14378;51.796;5.808;2022-11-20T14:31:28;4.80;99.90
26803;DHT22;14378;51.796;5.808;2022-11-20T14:33:32;4.80;99.90
26803;DHT22;14378;51.796;5.808;2022-11-20T14:35:37;4.80;99.90
26803;DHT22;14378;51.796;5.808;2022-11-20T14:37:40;4.80;99.90
26803;DHT22;14378;51.796;5.808;2022-11-20T14:39:47;4.80;99.90
26803;DHT22;14378;51.796;5.808;2022-11-20T14:41:52;4.90;99.90
26803;DHT22;14378;51.796;5.808;2022-11-20T14:43:56;4.90;99.90